Time;durP1;ratioP1;P1;durP2;ratioP2;P2;SDS_P1;SDS_P2;PMS_P1;PMS_P2;Temp;Humidity;BMP_temperature;BMP_pressure;BME280_temperature;BME280_humidity;BME280_pressure;Samples;Min_cycle;Max_cycle;Signal;HPM_P1;HPM_P2
2022/01/05 00:00:34;;;;;;;9.48;2.00;;;1.90;99.90;;;;;;5003958;28;20056;-79
2022/01/05 00:03:00;;;;;;;5.53;1.30;;;1.90;99.90;;;;;;5016655;28;20033;-79
2022/01/05 00:05:26;;;;;;;10.82;2.03;;;1.80;99.90;;;;;;4998636;28;20521;-80
2022/01/05 00:07:52;;;;;;;15.25;2.42;;;1.90;99.90;;;;;;5002717;28;20202;-79
2022/01/05 00:10:17;;;;;;;10.73;2.08;;;1.90;99.90;;;;;;5004209;28;20064;-80
2022/01/05 00:12:43;;;;;;;8.38;2.05;;;2.00;99.90;;;;;;5002045;28;20045;-80
2022/01/05 00:15:09;;;;;;;9.32;1.67;;;2.10;99.90;;;;;;5004023;28;20042;-80
2022/01/05 00:17:35;;;;;;;9.40;2.10;;;2.00;99.90;;;;;;4999893;28;20042;-79
2022/01/05 00:20:03;;;;;;;8.55;2.20;;;2.00;99.90;;;;;;4986115;28;20037;-79
2022/01/05 00:22:28;;;;;;;11.05;2.38;;;2.00;99.90;;;;;;4988159;28;20041;-79
2022/01/05 00:24:54;;;;;;;6.80;1.98;;;1.90;99.90;;;;;;5016877;28;20160;-80
2022/01/05 00:27:20;;;;;;;13.75;2.42;;;1.90;99.90;;;;;;4987121;28;20056;-80
2022/01/05 00:29:46;;;;;;;10.13;2.35;;;1.90;99.90;;;;;;4988859;28;20403;-79
2022/01/05 00:32:12;;;;;;;8.02;1.58;;;1.90;99.90;;;;;;5021325;28;20374;-80
2022/01/05 00:34:38;;;;;;;12.38;1.80;;;1.90;99.90;;;;;;5006619;28;20103;-80
2022/01/05 00:37:05;;;;;;;9.52;2.22;;;2.00;99.90;;;;;;5044637;28;20052;-80
2022/01/05 00:39:31;;;;;;;5.35;1.60;;;1.90;99.90;;;;;;5028675;28;20038;-80
2022/01/05 00:41:57;;;;;;;7.00;1.80;;;2.00;99.90;;;;;;5027437;28;20047;-80
2022/01/05 00:44:24;;;;;;;9.80;1.98;;;2.00;99.90;;;;;;5012954;28;20044;-80
2022/01/05 00:46:50;;;;;;;10.75;1.90;;;2.10;99.90;;;;;;5014330;28;20036;-80
2022/01/05 00:49:16;;;;;;;10.50;2.20;;;2.10;99.90;;;;;;4996843;28;20025;-80
2022/01/05 00:51:42;;;;;;;9.52;2.28;;;2.20;99.90;;;;;;5048989;28;20087;-80
2022/01/05 00:54:07;;;;;;;6.68;2.05;;;2.20;99.90;;;;;;4998791;28;20060;-80
2022/01/05 00:56:33;;;;;;;8.23;1.98;;;2.30;99.90;;;;;;5011782;28;20033;-80
2022/01/05 00:58:59;;;;;;;10.35;2.03;;;2.30;99.90;;;;;;5042806;28;20045;-80
2022/01/05 01:01:25;;;;;;;9.35;2.50;;;2.40;99.90;;;;;;5011661;28;20045;-80
2022/01/05 01:03:51;;;;;;;12.70;2.38;;;2.30;99.90;;;;;;5014480;28;20063;-80
2022/01/05 01:06:17;;;;;;;11.23;1.90;;;2.40;99.90;;;;;;5012644;28;20477;-80
2022/01/05 01:08:43;;;;;;;11.20;2.38;;;2.40;99.90;;;;;;5015072;28;20090;-80
2022/01/05 01:11:08;;;;;;;12.70;1.98;;;2.40;99.90;;;;;;4997359;28;20110;-80
2022/01/05 01:13:34;;;;;;;12.50;2.30;;;2.50;99.90;;;;;;5014606;28;20152;-80
2022/01/05 01:16:00;;;;;;;9.68;2.22;;;2.60;99.90;;;;;;5011055;28;20033;-80
2022/01/05 01:18:26;;;;;;;10.45;2.05;;;2.70;99.90;;;;;;5011488;28;20561;-80
2022/01/05 01:20:52;;;;;;;11.13;2.17;;;2.60;99.90;;;;;;5028722;28;21189;-80
2022/01/05 01:23:23;;;;;;;11.90;2.40;;;2.70;99.90;;;;;;5012773;28;20091;-80
2022/01/05 01:25:50;;;;;;;10.90;1.90;;;2.70;99.90;;;;;;5015661;28;20045;-80
2022/01/05 01:28:16;;;;;;;8.93;2.05;;;2.80;99.90;;;;;;5013069;28;20086;-80
2022/01/05 01:30:42;;;;;;;8.63;2.25;;;2.80;99.90;;;;;;5024598;28;20124;-80
2022/01/05 01:33:08;;;;;;;15.82;2.63;;;2.80;99.90;;;;;;5012205;28;20063;-80
2022/01/05 01:35:34;;;;;;;9.60;2.00;;;2.80;99.90;;;;;;5032055;28;20114;-80
2022/01/05 01:37:59;;;;;;;12.43;2.40;;;2.80;99.90;;;;;;5041736;28;20304;-80
2022/01/05 01:40:26;;;;;;;7.13;1.90;;;2.80;99.90;;;;;;4993193;28;20089;-80
2022/01/05 01:42:51;;;;;;;12.32;2.42;;;2.60;99.90;;;;;;5027372;28;20096;-80
2022/01/05 01:45:17;;;;;;;11.43;2.33;;;2.60;99.90;;;;;;5011226;28;20468;-80
2022/01/05 01:47:43;;;;;;;10.68;2.28;;;2.60;99.90;;;;;;5008683;28;20075;-81
2022/01/05 01:50:10;;;;;;;8.38;2.00;;;2.50;99.90;;;;;;5008335;28;20040;-80
2022/01/05 01:52:36;;;;;;;9.73;2.08;;;2.50;99.90;;;;;;5010992;28;20041;-80
2022/01/05 01:55:03;;;;;;;5.68;1.80;;;2.60;99.90;;;;;;5025870;28;20036;-80
2022/01/05 01:57:33;;;;;;;6.80;1.63;;;2.50;99.90;;;;;;5014432;28;20555;-80
2022/01/05 02:00:00;;;;;;;12.63;2.10;;;2.50;99.90;;;;;;5013025;28;20029;-80
2022/01/05 02:02:26;;;;;;;13.85;2.70;;;2.50;99.90;;;;;;5025407;28;20040;-80
2022/01/05 02:04:52;;;;;;;12.25;2.40;;;2.50;99.90;;;;;;5013183;28;20491;-80
2022/01/05 02:07:19;;;;;;;11.90;2.50;;;2.40;99.90;;;;;;5045577;28;20037;-80
2022/01/05 02:09:45;;;;;;;7.55;2.10;;;2.40;99.90;;;;;;5013362;28;20400;-81
2022/01/05 02:12:11;;;;;;;10.82;2.65;;;2.40;99.90;;;;;;5012343;28;20637;-80
2022/01/05 02:14:37;;;;;;;9.75;2.00;;;2.30;99.90;;;;;;5010937;28;20506;-80
2022/01/05 02:17:08;;;;;;;11.32;2.10;;;2.40;99.90;;;;;;5009052;28;20076;-80
2022/01/05 02:19:35;;;;;;;8.25;2.05;;;2.30;99.90;;;;;;5026548;28;20400;-81
2022/01/05 02:22:01;;;;;;;8.32;1.92;;;2.40;99.90;;;;;;5008885;28;20562;-80
2022/01/05 02:24:27;;;;;;;11.30;2.10;;;2.60;99.90;;;;;;5011195;28;20457;-80
2022/01/05 02:26:53;;;;;;;5.97;1.98;;;2.60;99.90;;;;;;5010409;28;20098;-80
2022/01/05 02:29:19;;;;;;;13.85;4.07;;;2.60;99.90;;;;;;5001788;28;20848;-81
2022/01/05 02:31:44;;;;;;;17.52;2.30;;;2.60;99.90;;;;;;5023886;28;20083;-81
2022/01/05 02:34:10;;;;;;;11.35;2.00;;;2.70;99.90;;;;;;4995215;28;20041;-80
2022/01/05 02:36:36;;;;;;;12.45;2.72;;;2.70;99.90;;;;;;5018596;28;20048;-80
2022/01/05 02:39:02;;;;;;;12.20;2.78;;;2.70;99.90;;;;;;5020922;28;20029;-81
2022/01/05 02:41:28;;;;;;;9.70;2.58;;;2.80;99.90;;;;;;5023352;28;20043;-81
2022/01/05 02:43:53;;;;;;;11.43;2.47;;;2.90;99.90;;;;;;5021551;28;20029;-81
2022/01/05 02:46:22;;;;;;;11.35;2.67;;;2.80;99.90;;;;;;5024260;28;20392;-81
2022/01/05 02:48:50;;;;;;;8.38;1.95;;;2.80;99.90;;;;;;5034535;28;20134;-80
2022/01/05 02:51:16;;;;;;;11.98;2.75;;;2.70;99.90;;;;;;5041304;28;20108;-81
2022/01/05 02:53:45;;;;;;;12.57;2.53;;;2.60;99.90;;;;;;5021709;28;20459;-81
2022/01/05 02:56:12;;;;;;;9.25;2.10;;;2.60;99.90;;;;;;5040887;28;20060;-81
2022/01/05 02:58:38;;;;;;;14.48;2.60;;;2.50;99.90;;;;;;5000425;28;20044;-81
2022/01/05 03:01:05;;;;;;;10.63;2.88;;;2.50;99.90;;;;;;5004562;28;20033;-81
2022/01/05 03:03:31;;;;;;;9.43;2.40;;;2.50;99.90;;;;;;5020626;28;20334;-81
2022/01/05 03:05:56;;;;;;;8.95;2.22;;;2.50;99.90;;;;;;5021539;28;20038;-80
2022/01/05 03:08:23;;;;;;;10.88;2.50;;;2.50;99.90;;;;;;5006700;28;20218;-81
2022/01/05 03:10:48;;;;;;;13.43;2.55;;;2.50;99.90;;;;;;5020549;28;20441;-81
2022/01/05 03:13:14;;;;;;;14.13;2.08;;;2.60;99.90;;;;;;5022868;28;20033;-81
2022/01/05 03:15:40;;;;;;;13.50;2.65;;;2.60;99.90;;;;;;5006432;28;20386;-81
2022/01/05 03:18:06;;;;;;;12.25;2.50;;;2.70;99.90;;;;;;5021635;28;20182;-81
2022/01/05 03:20:34;;;;;;;9.98;2.08;;;2.80;99.90;;;;;;5025612;28;20044;-80
2022/01/05 03:23:01;;;;;;;11.18;2.60;;;3.00;99.90;;;;;;5005938;28;20036;-81
2022/01/05 03:25:27;;;;;;;16.23;3.13;;;3.10;99.90;;;;;;5002085;28;20212;-81
2022/01/05 03:27:54;;;;;;;8.82;2.03;;;3.30;99.90;;;;;;5005905;28;20044;-80
2022/01/05 03:30:29;;;;;;;8.88;3.30;;;3.30;99.90;;;;;;5022319;28;20052;-81
2022/01/05 03:35:26;;;;;;;16.05;3.03;;;3.40;99.90;;;;;;5019376;28;20053;-81
2022/01/05 03:37:52;;;;;;;13.20;2.90;;;3.40;99.90;;;;;;5021697;28;20044;-80
2022/01/05 03:40:18;;;;;;;14.43;3.00;;;3.40;99.90;;;;;;5003594;28;20037;-80
2022/01/05 03:42:44;;;;;;;8.60;2.30;;;3.40;99.90;;;;;;5021802;28;20450;-80
2022/01/05 03:45:12;;;;;;;15.45;2.80;;;3.50;99.90;;;;;;5022088;28;20126;-80
2022/01/05 03:47:38;;;;;;;13.30;2.53;;;3.50;99.90;;;;;;5001990;28;20484;-81
2022/01/05 03:50:05;;;;;;;9.50;2.30;;;3.60;99.90;;;;;;5019993;28;20059;-80
2022/01/05 03:52:30;;;;;;;11.38;2.75;;;3.60;99.90;;;;;;5004827;28;20099;-80
2022/01/05 03:54:56;;;;;;;11.18;2.22;;;3.60;99.90;;;;;;5021231;28;20957;-80
2022/01/05 03:57:23;;;;;;;10.20;1.83;;;3.60;99.90;;;;;;5000288;28;20045;-80
2022/01/05 03:59:48;;;;;;;14.88;3.17;;;3.60;99.90;;;;;;5018945;28;20523;-80
2022/01/05 04:02:17;;;;;;;11.20;2.50;;;3.60;99.90;;;;;;4999475;28;20049;-80
2022/01/05 04:04:43;;;;;;;12.73;2.72;;;3.60;99.90;;;;;;5004705;28;21646;-80
2022/01/05 04:07:09;;;;;;;12.05;2.10;;;3.60;99.90;;;;;;5011014;28;20049;-80
2022/01/05 04:09:35;;;;;;;11.52;2.25;;;3.80;99.90;;;;;;5001141;28;20274;-80
2022/01/05 04:12:00;;;;;;;10.50;2.63;;;3.90;99.90;;;;;;5013350;28;20093;-80
2022/01/05 04:14:26;;;;;;;10.77;2.38;;;4.10;99.90;;;;;;5024828;28;20519;-80
2022/01/05 04:16:52;;;;;;;13.65;2.10;;;4.20;99.90;;;;;;5029189;28;20445;-80
2022/01/05 04:19:17;;;;;;;6.50;1.67;;;4.20;99.90;;;;;;5000008;28;20472;-80
2022/01/05 04:21:43;;;;;;;7.47;1.50;;;4.20;99.90;;;;;;5008383;28;20056;-80
2022/01/05 04:24:09;;;;;;;9.25;2.28;;;4.30;99.90;;;;;;5021766;28;20318;-80
2022/01/05 04:26:34;;;;;;;8.75;1.70;;;4.30;99.90;;;;;;5022975;28;20033;-80
2022/01/05 04:29:00;;;;;;;6.35;1.63;;;4.30;99.90;;;;;;4999181;28;20034;-80
2022/01/05 04:31:26;;;;;;;9.07;1.90;;;4.30;99.90;;;;;;5027049;28;20041;-81
2022/01/05 04:33:51;;;;;;;7.53;1.63;;;4.30;99.90;;;;;;5022339;28;20060;-80
2022/01/05 04:36:17;;;;;;;11.75;1.83;;;4.20;99.90;;;;;;5025811;28;20041;-80
2022/01/05 04:38:42;;;;;;;7.97;1.83;;;4.20;99.90;;;;;;5009740;28;20048;-80
2022/01/05 04:41:08;;;;;;;6.40;2.00;;;4.20;99.90;;;;;;5010282;28;20439;-80
2022/01/05 04:43:34;;;;;;;7.93;1.50;;;4.10;99.90;;;;;;5024848;28;20040;-80
2022/01/05 04:45:59;;;;;;;7.03;1.83;;;4.10;99.90;;;;;;5026262;28;20106;-80
2022/01/05 04:48:26;;;;;;;11.15;2.65;;;4.10;99.90;;;;;;5000565;28;20618;-80
2022/01/05 04:50:51;;;;;;;6.57;1.85;;;4.10;99.90;;;;;;5009560;28;20048;-80
2022/01/05 04:53:17;;;;;;;9.63;1.88;;;4.10;99.90;;;;;;5022330;28;20059;-80
2022/01/05 04:55:43;;;;;;;7.82;1.80;;;4.10;99.90;;;;;;5007137;28;20047;-80
2022/01/05 04:58:09;;;;;;;8.48;1.80;;;4.20;99.90;;;;;;5026171;28;20040;-80
2022/01/05 05:00:35;;;;;;;7.57;1.63;;;4.20;99.90;;;;;;5028456;28;20044;-80
2022/01/05 05:03:00;;;;;;;12.55;2.30;;;4.10;99.90;;;;;;5005385;28;20439;-81
2022/01/05 05:05:29;;;;;;;9.30;1.75;;;4.10;99.90;;;;;;5009303;28;20044;-81
2022/01/05 05:07:55;;;;;;;6.18;2.10;;;4.10;99.90;;;;;;5024460;28;20045;-80
2022/01/05 05:10:20;;;;;;;9.38;2.10;;;4.00;99.90;;;;;;5024063;28;20372;-80
2022/01/05 05:12:46;;;;;;;12.00;2.28;;;4.10;99.90;;;;;;5025502;28;20086;-80
2022/01/05 05:15:14;;;;;;;8.23;2.15;;;4.00;99.90;;;;;;5021756;28;20080;-80
2022/01/05 05:17:40;;;;;;;15.07;4.28;;;4.00;99.90;;;;;;5000299;28;20057;-80
2022/01/05 05:20:10;;;;;;;10.73;2.50;;;4.00;99.90;;;;;;5022012;28;20500;-80
2022/01/05 05:22:35;;;;;;;11.00;2.20;;;3.90;99.90;;;;;;5006659;28;20034;-80
2022/01/05 05:25:03;;;;;;;11.70;2.67;;;3.90;99.90;;;;;;5024644;28;20041;-80
2022/01/05 05:27:28;;;;;;;7.03;1.90;;;3.90;99.90;;;;;;5007861;28;20040;-80
2022/01/05 05:29:55;;;;;;;9.73;2.10;;;4.00;99.90;;;;;;5007606;28;20069;-80
2022/01/05 05:32:21;;;;;;;7.80;2.08;;;4.10;99.90;;;;;;5024876;28;20114;-80
2022/01/05 05:34:46;;;;;;;13.10;3.13;;;4.10;99.90;;;;;;5023246;28;20037;-81
2022/01/05 05:37:15;;;;;;;9.85;2.53;;;4.20;99.90;;;;;;5021932;28;20387;-80
2022/01/05 05:39:41;;;;;;;13.73;2.95;;;4.20;99.90;;;;;;5019698;28;20068;-80
2022/01/05 05:42:07;;;;;;;13.20;2.55;;;4.20;99.90;;;;;;5006374;28;20032;-80
2022/01/05 05:44:33;;;;;;;14.55;3.35;;;4.30;99.90;;;;;;5017571;28;20496;-80
2022/01/05 05:46:59;;;;;;;15.68;2.78;;;4.30;99.90;;;;;;5023625;28;22354;-80
2022/01/05 05:49:25;;;;;;;16.23;3.15;;;4.30;99.90;;;;;;4997411;28;20041;-80
2022/01/05 05:51:50;;;;;;;12.65;2.70;;;4.30;99.90;;;;;;5003767;28;20028;-80
2022/01/05 05:54:16;;;;;;;14.90;3.35;;;4.30;99.90;;;;;;5020399;28;20480;-80
2022/01/05 05:56:42;;;;;;;18.40;3.45;;;4.30;99.90;;;;;;5006021;28;20380;-80
2022/01/05 05:59:08;;;;;;;14.30;3.00;;;4.30;99.90;;;;;;5022813;28;20114;-80
2022/01/05 06:01:33;;;;;;;14.75;2.92;;;4.40;99.90;;;;;;5001214;28;20040;-80
2022/01/05 06:03:59;;;;;;;12.75;2.90;;;4.40;99.90;;;;;;5005430;28;20033;-80
2022/01/05 06:06:25;;;;;;;19.02;3.47;;;4.40;99.90;;;;;;5004306;28;20045;-80
2022/01/05 06:08:50;;;;;;;16.52;2.88;;;4.40;99.90;;;;;;5002588;28;20158;-80
2022/01/05 06:11:18;;;;;;;8.43;2.28;;;4.40;99.90;;;;;;5022222;28;20033;-80
2022/01/05 06:13:44;;;;;;;10.38;2.15;;;4.40;99.90;;;;;;5004773;28;20045;-80
2022/01/05 06:16:10;;;;;;;6.55;1.67;;;4.30;99.90;;;;;;5020628;28;20047;-80
2022/01/05 06:18:36;;;;;;;7.55;1.60;;;4.30;99.90;;;;;;5021838;28;20380;-80
2022/01/05 06:21:01;;;;;;;12.00;1.73;;;4.30;99.90;;;;;;5003946;28;20344;-80
2022/01/05 06:23:27;;;;;;;11.00;2.05;;;4.40;99.90;;;;;;5022912;28;20477;-80
2022/01/05 06:25:53;;;;;;;9.93;1.90;;;4.30;99.90;;;;;;5021434;28;20041;-80
2022/01/05 06:28:18;;;;;;;10.30;1.98;;;4.40;99.90;;;;;;5021511;28;21212;-80
2022/01/05 06:30:44;;;;;;;11.48;2.83;;;4.40;99.90;;;;;;4998678;28;20033;-80
2022/01/05 06:33:12;;;;;;;10.77;2.45;;;4.40;99.90;;;;;;5020293;28;20033;-80
2022/01/05 06:35:38;;;;;;;10.27;2.78;;;4.50;99.90;;;;;;5017261;28;20045;-80
2022/01/05 06:38:04;;;;;;;12.77;2.17;;;4.50;99.90;;;;;;5020375;28;20055;-80
2022/01/05 06:40:30;;;;;;;16.38;2.60;;;4.50;99.90;;;;;;5018923;28;20094;-80
2022/01/05 06:42:56;;;;;;;10.65;2.40;;;4.60;99.90;;;;;;5020570;28;20113;-80
2022/01/05 06:45:22;;;;;;;13.35;2.50;;;4.60;99.90;;;;;;5020981;28;20041;-80
2022/01/05 06:47:48;;;;;;;12.55;3.05;;;4.60;99.90;;;;;;5020588;28;20056;-80
2022/01/05 06:50:16;;;;;;;12.25;2.20;;;4.60;99.90;;;;;;5022041;28;20373;-80
2022/01/05 06:52:42;;;;;;;11.80;2.28;;;4.70;99.90;;;;;;5002942;28;20327;-80
2022/01/05 06:55:09;;;;;;;10.52;2.42;;;4.70;99.90;;;;;;5021698;28;20037;-80
2022/01/05 06:57:37;;;;;;;7.60;1.90;;;4.70;99.90;;;;;;5021653;28;20028;-80
2022/01/05 07:00:04;;;;;;;8.77;2.00;;;4.70;99.90;;;;;;5020313;28;20091;-80
2022/01/05 07:02:32;;;;;;;9.93;1.90;;;4.70;99.90;;;;;;5006924;28;20048;-80
2022/01/05 07:04:58;;;;;;;8.45;1.90;;;4.80;99.90;;;;;;5018100;28;20040;-80
2022/01/05 07:07:24;;;;;;;6.88;1.58;;;4.80;99.90;;;;;;5020564;28;20439;-81
2022/01/05 07:09:49;;;;;;;9.38;1.92;;;4.80;99.90;;;;;;5017410;28;20034;-80
2022/01/05 07:12:15;;;;;;;8.73;1.98;;;4.80;99.90;;;;;;5022502;28;20076;-80
2022/01/05 07:14:41;;;;;;;9.00;1.55;;;4.80;99.90;;;;;;5018219;28;20032;-80
2022/01/05 07:17:06;;;;;;;7.05;1.63;;;4.80;99.90;;;;;;5003552;28;20050;-80
2022/01/05 07:19:32;;;;;;;5.60;1.60;;;4.80;99.90;;;;;;4999771;28;20021;-80
2022/01/05 07:22:00;;;;;;;9.10;1.90;;;4.80;99.90;;;;;;5015046;28;20041;-80
2022/01/05 07:24:25;;;;;;;7.90;1.50;;;4.80;99.90;;;;;;5019875;28;20029;-80
2022/01/05 07:26:51;;;;;;;8.95;1.50;;;4.80;99.90;;;;;;5018928;28;20091;-80
2022/01/05 07:29:19;;;;;;;7.55;1.30;;;4.80;99.90;;;;;;5017373;28;20033;-80
2022/01/05 07:31:45;;;;;;;10.07;1.98;;;4.80;99.90;;;;;;5001584;28;20032;-80
2022/01/05 07:34:11;;;;;;;7.63;1.20;;;4.80;99.90;;;;;;5016089;28;20397;-80
2022/01/05 07:36:37;;;;;;;12.02;2.00;;;4.80;99.90;;;;;;4996594;28;20052;-80
2022/01/05 07:39:05;;;;;;;8.10;1.90;;;4.90;99.90;;;;;;5001171;28;20077;-80
2022/01/05 07:41:31;;;;;;;8.10;1.48;;;4.90;99.90;;;;;;4985819;28;20838;-80
2022/01/05 07:43:57;;;;;;;10.00;1.85;;;4.90;99.90;;;;;;4986067;28;20548;-80
2022/01/05 07:46:22;;;;;;;12.15;2.10;;;5.00;99.90;;;;;;5003475;28;20121;-80
2022/01/05 07:48:48;;;;;;;8.15;1.80;;;5.00;99.90;;;;;;4992926;28;20034;-81
2022/01/05 07:51:14;;;;;;;9.35;1.98;;;5.00;99.90;;;;;;5001435;28;20044;-81
2022/01/05 07:53:40;;;;;;;11.68;1.75;;;5.00;99.90;;;;;;4997142;28;20414;-80
2022/01/05 07:56:08;;;;;;;12.02;1.83;;;5.00;99.90;;;;;;5006553;28;20049;-80
2022/01/05 07:58:35;;;;;;;10.13;2.47;;;5.10;99.90;;;;;;5002495;28;20144;-80
2022/01/05 08:01:00;;;;;;;6.72;2.28;;;5.10;99.90;;;;;;5002522;28;20033;-80
2022/01/05 08:03:26;;;;;;;12.07;1.95;;;5.20;99.90;;;;;;5003783;28;20429;-81
2022/01/05 08:05:52;;;;;;;7.03;1.75;;;5.30;99.90;;;;;;4984839;28;20041;-80
2022/01/05 08:08:17;;;;;;;13.48;1.98;;;5.30;99.90;;;;;;5007601;28;20038;-81
2022/01/05 08:10:43;;;;;;;11.80;2.08;;;5.40;99.90;;;;;;5018789;28;20044;-80
2022/01/05 08:13:09;;;;;;;9.68;1.50;;;5.40;99.90;;;;;;4985952;28;20033;-80
2022/01/05 08:15:34;;;;;;;10.57;1.83;;;5.40;99.90;;;;;;5005802;28;20506;-80
2022/01/05 08:18:00;;;;;;;15.93;1.92;;;5.50;99.90;;;;;;5020328;28;20033;-81
2022/01/05 08:20:26;;;;;;;6.15;1.85;;;5.50;99.90;;;;;;4984198;28;20202;-80
2022/01/05 08:22:52;;;;;;;6.85;1.63;;;5.40;99.90;;;;;;5002862;28;20544;-80
2022/01/05 08:25:20;;;;;;;3.40;1.05;;;5.40;99.90;;;;;;5005363;28;20125;-80
2022/01/05 08:27:46;;;;;;;6.55;1.00;;;5.40;99.90;;;;;;4983980;28;20510;-80
2022/01/05 08:30:17;;;;;;;8.30;1.60;;;5.50;99.90;;;;;;5006333;28;20417;-80
2022/01/05 08:32:44;;;;;;;6.13;1.38;;;5.50;99.90;;;;;;5002202;28;20338;-80
2022/01/05 08:35:11;;;;;;;5.35;1.42;;;5.50;99.90;;;;;;5003891;28;20075;-80
2022/01/05 08:37:38;;;;;;;6.03;1.35;;;5.50;99.90;;;;;;4981882;28;20128;-81
2022/01/05 08:40:04;;;;;;;8.95;1.58;;;5.40;99.90;;;;;;4980494;28;20940;-81
2022/01/05 08:42:30;;;;;;;8.32;1.40;;;5.50;99.90;;;;;;5001093;28;20552;-80
2022/01/05 08:44:57;;;;;;;6.47;1.52;;;5.50;99.90;;;;;;5018560;28;20132;-80
2022/01/05 08:47:23;;;;;;;12.18;1.88;;;5.50;99.90;;;;;;5006666;28;20456;-80
2022/01/05 08:49:49;;;;;;;9.30;1.88;;;5.60;99.90;;;;;;5001936;28;20041;-80
2022/01/05 08:52:14;;;;;;;9.52;1.80;;;5.60;99.90;;;;;;5003369;28;20075;-80
2022/01/05 08:54:40;;;;;;;15.23;2.78;;;5.70;99.90;;;;;;5017702;28;20040;-80
2022/01/05 08:57:06;;;;;;;18.88;2.78;;;5.80;99.90;;;;;;5000463;28;20068;-80
2022/01/05 08:59:32;;;;;;;10.57;1.95;;;5.90;99.90;;;;;;5005150;28;20038;-80
2022/01/05 09:01:58;;;;;;;7.60;2.08;;;5.90;99.90;;;;;;5002643;28;20551;-80
2022/01/05 09:04:23;;;;;;;7.03;1.35;;;6.00;99.90;;;;;;5001353;28;20041;-81
2022/01/05 09:06:49;;;;;;;7.65;1.83;;;6.10;99.90;;;;;;4986053;28;20033;-81
2022/01/05 09:09:15;;;;;;;14.15;2.33;;;6.10;99.90;;;;;;5003538;28;20037;-81
2022/01/05 09:11:40;;;;;;;9.02;1.90;;;6.10;99.90;;;;;;4986528;28;20049;-81
2022/01/05 09:14:06;;;;;;;12.10;2.35;;;6.10;99.90;;;;;;5000063;28;20046;-80
2022/01/05 09:16:32;;;;;;;10.55;2.30;;;6.20;99.90;;;;;;5003122;28;20064;-80
2022/01/05 09:18:58;;;;;;;12.80;2.30;;;6.10;99.90;;;;;;4995769;28;20635;-81
2022/01/05 09:21:24;;;;;;;11.20;2.08;;;6.10;99.90;;;;;;5007693;28;20500;-80
2022/01/05 09:23:52;;;;;;;14.88;2.60;;;6.10;99.90;;;;;;4981026;28;20042;-80
2022/01/05 09:26:19;;;;;;;15.50;1.83;;;6.10;99.90;;;;;;4994196;28;20284;-81
2022/01/05 09:28:45;;;;;;;5.95;1.50;;;6.10;99.90;;;;;;5005230;28;20498;-80
2022/01/05 09:31:11;;;;;;;6.75;1.60;;;6.10;99.90;;;;;;4986800;28;20033;-80
2022/01/05 09:33:37;;;;;;;6.55;1.83;;;6.00;99.90;;;;;;4982245;28;20041;-81
2022/01/05 09:36:32;;;;;;;6.35;1.75;;;6.10;99.90;;;;;;4941710;28;1073446;-81
2022/01/05 09:44:21;;;;;;;14.52;1.85;;;6.20;99.90;;;;;;5024475;28;20047;-80
2022/01/05 09:47:02;;;;;;;11.23;2.22;;;6.40;99.90;;;;;;5012442;28;20029;-80
2022/01/05 09:49:35;;;;;;;3.83;1.40;;;6.40;99.90;;;;;;5022717;28;20037;-80
2022/01/05 09:52:05;;;;;;;6.70;1.63;;;6.50;99.90;;;;;;5039825;28;20040;-80
2022/01/05 09:54:34;;;;;;;11.00;2.05;;;6.60;99.90;;;;;;5020588;28;20033;-80
2022/01/05 09:57:00;;;;;;;9.95;1.75;;;6.70;99.90;;;;;;5021348;28;20234;-80
2022/01/05 09:59:25;;;;;;;10.32;2.10;;;6.70;99.90;;;;;;5022090;28;20627;-80
2022/01/05 10:01:51;;;;;;;12.10;2.42;;;6.70;99.90;;;;;;5021437;28;20182;-80
2022/01/05 10:04:17;;;;;;;15.90;2.00;;;6.80;99.90;;;;;;5021295;28;21209;-80
2022/01/05 10:06:42;;;;;;;16.23;2.47;;;6.90;99.90;;;;;;5022988;28;20037;-80
2022/01/05 10:09:09;;;;;;;9.32;2.80;;;6.90;99.90;;;;;;5022683;28;20116;-80
2022/01/05 10:11:35;;;;;;;14.00;2.78;;;7.00;99.90;;;;;;5022730;28;20047;-80
2022/01/05 10:14:02;;;;;;;7.35;1.98;;;7.00;99.90;;;;;;5023645;28;20037;-80
2022/01/05 10:16:27;;;;;;;8.63;2.42;;;7.10;99.90;;;;;;5026622;28;20048;-80
2022/01/05 10:18:53;;;;;;;14.02;2.40;;;7.20;99.90;;;;;;5014970;28;20022;-80
2022/01/05 10:21:19;;;;;;;11.15;2.15;;;7.20;99.90;;;;;;5022182;28;20774;-80
2022/01/05 10:23:50;;;;;;;11.95;2.00;;;7.10;99.90;;;;;;5021577;28;20071;-80
2022/01/05 10:26:42;;;;;;;10.82;1.70;;;7.10;99.90;;;;;;5021189;28;20041;-80
2022/01/05 10:29:22;;;;;;;8.50;1.88;;;7.10;99.90;;;;;;4999345;28;20049;-80
2022/01/05 10:31:53;;;;;;;12.32;3.00;;;7.10;99.90;;;;;;5041543;28;20044;-79
2022/01/05 10:34:22;;;;;;;12.32;2.20;;;7.10;99.90;;;;;;5017241;28;20036;-80
2022/01/05 10:37:05;;;;;;;11.93;2.08;;;7.10;99.90;;;;;;4997253;28;20177;-80
2022/01/05 10:39:35;;;;;;;11.73;2.00;;;7.20;99.90;;;;;;5000528;28;20628;-80
2022/01/05 10:42:12;;;;;;;7.95;2.10;;;7.20;99.90;;;;;;5005342;28;20044;-80
2022/01/05 10:44:43;;;;;;;9.57;1.85;;;7.20;99.90;;;;;;5001878;28;20041;-80
2022/01/05 10:47:09;;;;;;;12.20;2.40;;;7.30;99.90;;;;;;5000543;28;20071;-80
2022/01/05 10:49:37;;;;;;;8.13;1.80;;;7.40;99.90;;;;;;4984817;28;20084;-80
2022/01/05 10:52:19;;;;;;;9.23;1.83;;;7.50;99.90;;;;;;5000588;28;20519;-80
2022/01/05 10:54:45;;;;;;;12.65;2.63;;;7.50;99.90;;;;;;5022913;28;20347;-80
2022/01/05 10:57:13;;;;;;;15.25;3.42;;;7.60;99.90;;;;;;5001281;28;20069;-80
2022/01/05 10:59:44;;;;;;;11.98;2.38;;;7.60;99.90;;;;;;4999857;28;20119;-80
2022/01/05 11:02:31;;;;;;;17.55;3.00;;;7.60;99.90;;;;;;4998646;28;20397;-80
2022/01/05 11:05:06;;;;;;;16.92;2.92;;;7.70;99.90;;;;;;5000315;28;20048;-80
2022/01/05 11:07:34;;;;;;;16.73;2.95;;;7.80;99.90;;;;;;5018290;28;20038;-80
2022/01/05 11:10:05;;;;;;;16.30;2.90;;;7.90;99.90;;;;;;4995502;28;20048;-80
2022/01/05 11:12:35;;;;;;;16.42;3.15;;;8.00;99.90;;;;;;5004263;28;20060;-80
2022/01/05 11:15:20;;;;;;;11.13;2.63;;;7.90;99.90;;;;;;4996988;28;20044;-80
2022/01/05 11:18:04;;;;;;;9.73;2.95;;;7.90;99.90;;;;;;4998914;28;20034;-80
2022/01/05 11:20:30;;;;;;;18.60;3.30;;;7.90;99.90;;;;;;4998950;28;20035;-79
2022/01/05 11:22:56;;;;;;;24.05;3.58;;;8.00;99.90;;;;;;5000324;28;20116;-81
2022/01/05 11:25:21;;;;;;;12.80;2.65;;;7.90;99.90;;;;;;5000211;28;20037;-80
2022/01/05 11:27:48;;;;;;;16.50;3.63;;;7.90;99.90;;;;;;5026802;28;20530;-80
2022/01/05 11:30:13;;;;;;;17.70;3.25;;;8.00;99.90;;;;;;5000911;28;20061;-80
2022/01/05 11:32:39;;;;;;;20.27;3.42;;;8.00;99.90;;;;;;5024229;28;20060;-80
2022/01/05 11:35:07;;;;;;;15.18;3.35;;;8.00;99.90;;;;;;5001455;28;20451;-80
2022/01/05 11:37:34;;;;;;;16.02;3.08;;;8.00;99.90;;;;;;5018012;28;20942;-80
2022/01/05 11:40:04;;;;;;;17.08;3.10;;;7.90;99.90;;;;;;5021212;28;20051;-80
2022/01/05 11:42:33;;;;;;;14.65;2.58;;;7.90;99.90;;;;;;5002545;28;20348;-81
2022/01/05 11:44:59;;;;;;;22.38;3.63;;;7.90;99.90;;;;;;5005050;28;20045;-80
2022/01/05 11:47:28;;;;;;;20.58;3.20;;;8.00;99.90;;;;;;5022494;28;20416;-80
2022/01/05 11:50:15;;;;;;;15.07;3.53;;;8.00;99.90;;;;;;5022425;28;20048;-80
2022/01/05 11:52:58;;;;;;;25.13;3.90;;;8.10;99.90;;;;;;5005080;28;20476;-80
2022/01/05 11:55:24;;;;;;;19.13;3.45;;;8.20;99.90;;;;;;5015827;28;20076;-80
2022/01/05 11:58:16;;;;;;;16.85;3.10;;;8.30;99.90;;;;;;4998249;28;20080;-80
2022/01/05 12:00:43;;;;;;;15.52;2.85;;;8.20;99.90;;;;;;5016702;28;20049;-81
2022/01/05 12:03:09;;;;;;;17.67;3.17;;;8.20;99.90;;;;;;5002933;28;20029;-80
2022/01/05 12:06:06;;;;;;;21.08;3.22;;;8.20;99.90;;;;;;5003805;28;20099;-81
2022/01/05 12:08:50;;;;;;;17.08;3.00;;;8.20;99.90;;;;;;4993608;28;20179;-80
2022/01/05 12:11:35;;;;;;;12.70;2.47;;;8.10;99.90;;;;;;5022375;28;20041;-80
2022/01/05 12:14:03;;;;;;;15.48;2.40;;;8.10;99.90;;;;;;5004690;28;20140;-80
2022/01/05 12:16:29;;;;;;;13.27;2.50;;;8.00;99.90;;;;;;5003507;28;20564;-81
2022/01/05 12:19:07;;;;;;;10.38;2.50;;;8.10;99.90;;;;;;5000240;28;20088;-80
2022/01/05 12:21:48;;;;;;;15.65;2.60;;;8.00;99.90;;;;;;5021914;28;20384;-80
2022/01/05 12:24:14;;;;;;;13.18;2.58;;;8.10;99.90;;;;;;5004129;28;20112;-81
2022/01/05 12:26:40;;;;;;;16.98;2.75;;;8.20;99.90;;;;;;5024505;28;20191;-81
2022/01/05 12:29:06;;;;;;;13.02;2.75;;;8.20;99.90;;;;;;5023155;28;20077;-81
2022/01/05 12:31:47;;;;;;;15.27;3.53;;;8.10;99.90;;;;;;5020412;28;20040;-80
2022/01/05 12:34:19;;;;;;;12.98;2.70;;;8.00;99.90;;;;;;5022698;28;20423;-80
2022/01/05 12:36:45;;;;;;;15.02;2.53;;;8.00;99.90;;;;;;5044268;28;20478;-81
2022/01/05 12:39:11;;;;;;;12.60;2.28;;;8.10;99.90;;;;;;5014575;28;20548;-80
2022/01/05 12:41:39;;;;;;;13.80;2.67;;;8.00;99.90;;;;;;5014584;28;20179;-80
2022/01/05 12:44:22;;;;;;;13.68;2.45;;;8.00;99.90;;;;;;5016634;28;20041;-80
2022/01/05 12:46:51;;;;;;;11.13;2.60;;;8.00;99.90;;;;;;5025462;28;20059;-80
2022/01/05 12:49:29;;;;;;;11.07;1.95;;;8.00;99.90;;;;;;5010190;28;20099;-81
2022/01/05 12:52:09;;;;;;;13.18;2.40;;;8.00;99.90;;;;;;5006511;28;20351;-80
2022/01/05 12:54:47;;;;;;;16.48;2.80;;;7.90;99.90;;;;;;5027468;28;20487;-81
2022/01/05 12:57:22;;;;;;;15.20;2.90;;;7.80;99.90;;;;;;5010611;28;20554;-80
2022/01/05 12:59:50;;;;;;;10.90;2.03;;;7.60;99.90;;;;;;5018631;28;20068;-80